Current Weather

Learmonth

Learmonth, Australia (YPLM)

Report from: Friday, April 19, 2024 7:00 PM AEST
Current time: Friday, April 19, 2024 7:21 PM AEST

Nearby weather – Weather history – Daily summaries
Weather forecast

Temperature30.0°C (86.0°F)
Heat index29.8°C (85.7°F)
Dew point15.0°C (59.0°F)
Winds 11 kts (5.7 m/s, 12.7 mph) North-Northeast (20°)
Visibility6.2 mi. (10 km)
Clouds Sky clear
Altimeter29.94 in.Hg (1014 mB)
Relative humidity40 %
Density altitude1,931 ft. (588 m)
Remarks Fully automated report
No clouds detected
Flight conditions Visual Meteorological Conditions
Raw dataYPLM 190900Z AUTO 02011KT 9999 // NCD 30/15 Q1014 RF00.0/000.0
An error has occurred. This application may no longer respond until reloaded. Reload 🗙